sensor_id;sensor_type;location;lat;lon;timestamp;temperature;humidity
64599;SHT31;51008;51.504;11.548;2023-10-08T00:03:50;17.94;81.58
64599;SHT31;51008;51.504;11.548;2023-10-08T00:08:51;17.95;81.37
64599;SHT31;51008;51.504;11.548;2023-10-08T00:13:52;17.97;81.47
64599;SHT31;51008;51.504;11.548;2023-10-08T00:18:53;17.95;81.57
64599;SHT31;51008;51.504;11.548;2023-10-08T00:23:55;17.97;81.54
64599;SHT31;51008;51.504;11.548;2023-10-08T00:28:58;17.99;81.66
64599;SHT31;51008;51.504;11.548;2023-10-08T00:33:59;17.94;81.87
64599;SHT31;51008;51.504;11.548;2023-10-08T00:39:00;17.92;82.69
64599;SHT31;51008;51.504;11.548;2023-10-08T00:44:01;17.80;83.62
64599;SHT31;51008;51.504;11.548;2023-10-08T00:49:02;17.71;84.50
64599;SHT31;51008;51.504;11.548;2023-10-08T00:54:04;17.61;85.20
64599;SHT31;51008;51.504;11.548;2023-10-08T00:59:08;17.59;85.87
64599;SHT31;51008;51.504;11.548;2023-10-08T01:04:09;17.61;85.48
64599;SHT31;51008;51.504;11.548;2023-10-08T01:09:10;17.19;83.94
64599;SHT31;51008;51.504;11.548;2023-10-08T01:14:11;15.70;85.79
64599;SHT31;51008;51.504;11.548;2023-10-08T01:19:12;14.77;88.96
64599;SHT31;51008;51.504;11.548;2023-10-08T01:24:18;14.15;90.74
64599;SHT31;51008;51.504;11.548;2023-10-08T01:29:19;13.76;91.96
64599;SHT31;51008;51.504;11.548;2023-10-08T01:34:20;13.53;92.44
64599;SHT31;51008;51.504;11.548;2023-10-08T01:39:21;13.31;92.72
64599;SHT31;51008;51.504;11.548;2023-10-08T01:44:22;13.23;93.18
64599;SHT31;51008;51.504;11.548;2023-10-08T01:49:23;13.10;93.63
64599;SHT31;51008;51.504;11.548;2023-10-08T01:54:24;13.05;94.03
64599;SHT31;51008;51.504;11.548;2023-10-08T01:59:25;13.03;94.28
64599;SHT31;51008;51.504;11.548;2023-10-08T02:04:26;12.94;94.72
64599;SHT31;51008;51.504;11.548;2023-10-08T02:09:27;12.93;94.69
64599;SHT31;51008;51.504;11.548;2023-10-08T02:14:28;12.86;95.03
64599;SHT31;51008;51.504;11.548;2023-10-08T02:19:29;12.80;95.15
64599;SHT31;51008;51.504;11.548;2023-10-08T02:24:30;12.73;95.58
64599;SHT31;51008;51.504;11.548;2023-10-08T02:29:32;12.73;95.34
64599;SHT31;51008;51.504;11.548;2023-10-08T02:34:33;12.66;95.37
64599;SHT31;51008;51.504;11.548;2023-10-08T02:39:34;12.59;95.82
64599;SHT31;51008;51.504;11.548;2023-10-08T02:44:35;12.55;95.97
64599;SHT31;51008;51.504;11.548;2023-10-08T02:49:36;12.48;95.93
64599;SHT31;51008;51.504;11.548;2023-10-08T02:54:37;12.38;96.27
64599;SHT31;51008;51.504;11.548;2023-10-08T02:59:38;12.29;96.29
64599;SHT31;51008;51.504;11.548;2023-10-08T03:04:43;12.25;96.45
64599;SHT31;51008;51.504;11.548;2023-10-08T03:09:44;12.21;96.47
64599;SHT31;51008;51.504;11.548;2023-10-08T03:14:45;12.21;96.46
64599;SHT31;51008;51.504;11.548;2023-10-08T03:19:46;12.14;96.51
64599;SHT31;51008;51.504;11.548;2023-10-08T03:24:47;12.07;96.70
64599;SHT31;51008;51.504;11.548;2023-10-08T03:29:48;12.07;96.25
64599;SHT31;51008;51.504;11.548;2023-10-08T03:34:50;11.95;96.06
64599;SHT31;51008;51.504;11.548;2023-10-08T03:39:51;11.91;95.96
64599;SHT31;51008;51.504;11.548;2023-10-08T03:44:53;11.87;96.28
64599;SHT31;51008;51.504;11.548;2023-10-08T03:49:54;11.91;96.44
64599;SHT31;51008;51.504;11.548;2023-10-08T03:54:55;11.90;96.10
64599;SHT31;51008;51.504;11.548;2023-10-08T03:59:55;11.80;95.95
64599;SHT31;51008;51.504;11.548;2023-10-08T04:04:56;11.65;96.29
64599;SHT31;51008;51.504;11.548;2023-10-08T04:09:59;11.58;96.36
64599;SHT31;51008;51.504;11.548;2023-10-08T04:15:04;11.40;96.06
64599;SHT31;51008;51.504;11.548;2023-10-08T04:20:07;11.27;96.25
64599;SHT31;51008;51.504;11.548;2023-10-08T04:25:08;11.12;96.00
64599;SHT31;51008;51.504;11.548;2023-10-08T04:30:10;10.89;95.88
64599;SHT31;51008;51.504;11.548;2023-10-08T04:35:11;10.65;95.59
64599;SHT31;51008;51.504;11.548;2023-10-08T04:40:12;10.52;95.99
64599;SHT31;51008;51.504;11.548;2023-10-08T04:45:13;10.41;96.31
64599;SHT31;51008;51.504;11.548;2023-10-08T04:50:14;10.34;96.38
64599;SHT31;51008;51.504;11.548;2023-10-08T04:55:15;10.25;96.67
64599;SHT31;51008;51.504;11.548;2023-10-08T05:00:16;10.15;96.54
64599;SHT31;51008;51.504;11.548;2023-10-08T05:05:17;10.10;96.82
64599;SHT31;51008;51.504;11.548;2023-10-08T05:10:18;10.14;97.16
64599;SHT31;51008;51.504;11.548;2023-10-08T05:15:19;10.17;97.28
64599;SHT31;51008;51.504;11.548;2023-10-08T05:20:21;10.21;97.23
64599;SHT31;51008;51.504;11.548;2023-10-08T05:25:22;10.20;97.06
64599;SHT31;51008;51.504;11.548;2023-10-08T05:30:25;10.15;96.47
64599;SHT31;51008;51.504;11.548;2023-10-08T05:35:26;10.07;95.95
64599;SHT31;51008;51.504;11.548;2023-10-08T05:40:27;10.03;95.95
64599;SHT31;51008;51.504;11.548;2023-10-08T05:45:30;10.03;95.96
64599;SHT31;51008;51.504;11.548;2023-10-08T05:50:31;10.01;95.63
64599;SHT31;51008;51.504;11.548;2023-10-08T05:55:33;10.00;95.39
64599;SHT31;51008;51.504;11.548;2023-10-08T06:00:34;9.91;94.43
64599;SHT31;51008;51.504;11.548;2023-10-08T06:05:35;9.91;94.00
64599;SHT31;51008;51.504;11.548;2023-10-08T06:10:36;9.91;94.02
64599;SHT31;51008;51.504;11.548;2023-10-08T06:15:48;9.87;93.86
64599;SHT31;51008;51.504;11.548;2023-10-08T06:20:50;9.82;92.74
64599;SHT31;51008;51.504;11.548;2023-10-08T06:25:52;9.85;93.20
64599;SHT31;51008;51.504;11.548;2023-10-08T06:30:55;9.79;92.70
64599;SHT31;51008;51.504;11.548;2023-10-08T06:35:57;9.79;91.62
64599;SHT31;51008;51.504;11.548;2023-10-08T06:40:58;9.72;91.82
64599;SHT31;51008;51.504;11.548;2023-10-08T06:46:00;9.65;91.68
64599;SHT31;51008;51.504;11.548;2023-10-08T06:51:01;9.63;91.86
64599;SHT31;51008;51.504;11.548;2023-10-08T06:56:02;9.65;92.19
64599;SHT31;51008;51.504;11.548;2023-10-08T07:01:03;9.65;91.96
64599;SHT31;51008;51.504;11.548;2023-10-08T07:06:04;9.70;92.23
64599;SHT31;51008;51.504;11.548;2023-10-08T07:11:05;9.79;92.66
64599;SHT31;51008;51.504;11.548;2023-10-08T07:16:06;9.76;92.25
64599;SHT31;51008;51.504;11.548;2023-10-08T07:21:07;9.76;92.29
64599;SHT31;51008;51.504;11.548;2023-10-08T07:26:08;9.72;92.14
64599;SHT31;51008;51.504;11.548;2023-10-08T07:31:16;9.72;91.70
64599;SHT31;51008;51.504;11.548;2023-10-08T07:36:17;9.72;91.84
64599;SHT31;51008;51.504;11.548;2023-10-08T07:41:19;9.76;91.63
64599;SHT31;51008;51.504;11.548;2023-10-08T07:46:20;9.85;91.97
64599;SHT31;51008;51.504;11.548;2023-10-08T07:51:21;9.91;91.91
64599;SHT31;51008;51.504;11.548;2023-10-08T07:56:23;10.00;91.65
64599;SHT31;51008;51.504;11.548;2023-10-08T08:01:24;10.06;91.81
64599;SHT31;51008;51.504;11.548;2023-10-08T08:06:25;10.17;92.13
64599;SHT31;51008;51.504;11.548;2023-10-08T08:11:26;10.32;92.20
64599;SHT31;51008;51.504;11.548;2023-10-08T08:16:27;10.45;91.99
64599;SHT31;51008;51.504;11.548;2023-10-08T08:21:28;10.55;91.57
64599;SHT31;51008;51.504;11.548;2023-10-08T08:26:29;10.60;91.53
64599;SHT31;51008;51.504;11.548;2023-10-08T08:31:30;10.62;91.30
64599;SHT31;51008;51.504;11.548;2023-10-08T08:36:31;10.77;91.17
64599;SHT31;51008;51.504;11.548;2023-10-08T08:41:32;11.00;91.34
64599;SHT31;51008;51.504;11.548;2023-10-08T08:46:36;11.28;91.13
64599;SHT31;51008;51.504;11.548;2023-10-08T08:51:37;11.59;89.69
64599;SHT31;51008;51.504;11.548;2023-10-08T08:56:40;11.97;89.20
64599;SHT31;51008;51.504;11.548;2023-10-08T09:01:42;12.32;86.59
64599;SHT31;51008;51.504;11.548;2023-10-08T09:06:43;12.73;85.62
64599;SHT31;51008;51.504;11.548;2023-10-08T09:11:44;13.25;84.65
64599;SHT31;51008;51.504;11.548;2023-10-08T09:16:45;14.00;82.70
64599;SHT31;51008;51.504;11.548;2023-10-08T09:22:11;14.39;78.91
64599;SHT31;51008;51.504;11.548;2023-10-08T09:27:12;14.35;80.18
64599;SHT31;51008;51.504;11.548;2023-10-08T09:32:13;14.24;80.22
64599;SHT31;51008;51.504;11.548;2023-10-08T09:37:15;14.26;79.80
64599;SHT31;51008;51.504;11.548;2023-10-08T09:42:16;14.21;80.36
64599;SHT31;51008;51.504;11.548;2023-10-08T09:47:21;14.62;79.89
64599;SHT31;51008;51.504;11.548;2023-10-08T09:52:24;14.85;77.60
64599;SHT31;51008;51.504;11.548;2023-10-08T09:57:29;14.94;77.46
64599;SHT31;51008;51.504;11.548;2023-10-08T10:02:30;14.99;76.69
64599;SHT31;51008;51.504;11.548;2023-10-08T10:07:32;14.79;77.02
64599;SHT31;51008;51.504;11.548;2023-10-08T10:12:33;14.30;79.35
64599;SHT31;51008;51.504;11.548;2023-10-08T10:17:36;13.74;78.62
64599;SHT31;51008;51.504;11.548;2023-10-08T10:22:37;13.26;80.27
64599;SHT31;51008;51.504;11.548;2023-10-08T10:27:38;12.84;81.46
64599;SHT31;51008;51.504;11.548;2023-10-08T10:32:44;13.15;81.84
64599;SHT31;51008;51.504;11.548;2023-10-08T10:37:46;13.35;81.39
64599;SHT31;51008;51.504;11.548;2023-10-08T10:42:48;13.42;80.09
64599;SHT31;51008;51.504;11.548;2023-10-08T10:47:53;13.84;80.52
64599;SHT31;51008;51.504;11.548;2023-10-08T10:52:53;13.95;78.70
64599;SHT31;51008;51.504;11.548;2023-10-08T10:57:56;14.77;78.28
64599;SHT31;51008;51.504;11.548;2023-10-08T11:02:58;15.90;76.73
64599;SHT31;51008;51.504;11.548;2023-10-08T11:08:00;16.57;72.33
64599;SHT31;51008;51.504;11.548;2023-10-08T11:13:01;16.83;71.51
64599;SHT31;51008;51.504;11.548;2023-10-08T11:18:07;17.25;71.34
64599;SHT31;51008;51.504;11.548;2023-10-08T11:23:09;16.22;70.40
64599;SHT31;51008;51.504;11.548;2023-10-08T11:28:10;15.50;71.76
64599;SHT31;51008;51.504;11.548;2023-10-08T11:33:11;14.98;74.83
64599;SHT31;51008;51.504;11.548;2023-10-08T11:38:13;15.19;74.82
64599;SHT31;51008;51.504;11.548;2023-10-08T11:43:15;15.77;73.20
64599;SHT31;51008;51.504;11.548;2023-10-08T11:48:16;14.91;74.10
64599;SHT31;51008;51.504;11.548;2023-10-08T11:53:17;15.25;73.79
64599;SHT31;51008;51.504;11.548;2023-10-08T11:58:18;15.01;73.95
64599;SHT31;51008;51.504;11.548;2023-10-08T12:03:19;15.19;74.59
64599;SHT31;51008;51.504;11.548;2023-10-08T12:08:20;15.52;72.93
64599;SHT31;51008;51.504;11.548;2023-10-08T12:13:21;16.11;72.60
64599;SHT31;51008;51.504;11.548;2023-10-08T12:18:22;16.21;68.13
64599;SHT31;51008;51.504;11.548;2023-10-08T12:23:23;15.84;70.04
64599;SHT31;51008;51.504;11.548;2023-10-08T12:28:25;16.89;70.10
64599;SHT31;51008;51.504;11.548;2023-10-08T12:33:29;16.77;66.08
64599;SHT31;51008;51.504;11.548;2023-10-08T12:38:30;16.46;66.98
64599;SHT31;51008;51.504;11.548;2023-10-08T12:43:31;16.67;69.15
64599;SHT31;51008;51.504;11.548;2023-10-08T12:48:32;16.78;67.25
64599;SHT31;51008;51.504;11.548;2023-10-08T12:53:33;16.30;66.22
64599;SHT31;51008;51.504;11.548;2023-10-08T12:58:35;15.05;69.85
64599;SHT31;51008;51.504;11.548;2023-10-08T13:03:37;14.55;71.44
64599;SHT31;51008;51.504;11.548;2023-10-08T13:08:38;14.87;70.12
64599;SHT31;51008;51.504;11.548;2023-10-08T13:13:39;15.14;71.90
64599;SHT31;51008;51.504;11.548;2023-10-08T13:18:40;15.67;69.22
64599;SHT31;51008;51.504;11.548;2023-10-08T13:23:41;15.60;69.18
64599;SHT31;51008;51.504;11.548;2023-10-08T13:28:43;15.64;69.07
64599;SHT31;51008;51.504;11.548;2023-10-08T13:33:44;15.15;69.89
64599;SHT31;51008;51.504;11.548;2023-10-08T13:38:45;15.57;69.78
64599;SHT31;51008;51.504;11.548;2023-10-08T13:43:48;15.64;68.62
64599;SHT31;51008;51.504;11.548;2023-10-08T13:48:49;15.02;70.14
64599;SHT31;51008;51.504;11.548;2023-10-08T13:53:55;14.87;70.08
64599;SHT31;51008;51.504;11.548;2023-10-08T13:58:58;15.16;68.90
64599;SHT31;51008;51.504;11.548;2023-10-08T14:03:59;14.46;70.13
64599;SHT31;51008;51.504;11.548;2023-10-08T14:09:01;14.29;71.42
64599;SHT31;51008;51.504;11.548;2023-10-08T14:14:03;13.95;73.20
64599;SHT31;51008;51.504;11.548;2023-10-08T14:19:04;14.01;72.75
64599;SHT31;51008;51.504;11.548;2023-10-08T14:24:05;14.01;71.95
64599;SHT31;51008;51.504;11.548;2023-10-08T14:29:06;14.24;72.27
64599;SHT31;51008;51.504;11.548;2023-10-08T14:34:07;14.21;71.49
64599;SHT31;51008;51.504;11.548;2023-10-08T14:39:08;14.29;71.67
64599;SHT31;51008;51.504;11.548;2023-10-08T14:44:09;14.22;71.62
64599;SHT31;51008;51.504;11.548;2023-10-08T14:49:10;14.17;71.70
64599;SHT31;51008;51.504;11.548;2023-10-08T14:54:11;14.19;72.71
64599;SHT31;51008;51.504;11.548;2023-10-08T14:59:12;13.91;71.64
64599;SHT31;51008;51.504;11.548;2023-10-08T15:04:13;13.84;72.36
64599;SHT31;51008;51.504;11.548;2023-10-08T15:09:14;13.93;73.46
64599;SHT31;51008;51.504;11.548;2023-10-08T15:14:15;13.97;72.91
64599;SHT31;51008;51.504;11.548;2023-10-08T15:19:16;13.87;73.44
64599;SHT31;51008;51.504;11.548;2023-10-08T15:24:19;13.84;73.53
64599;SHT31;51008;51.504;11.548;2023-10-08T15:29:23;13.78;73.61
64599;SHT31;51008;51.504;11.548;2023-10-08T15:34:25;13.87;74.62
64599;SHT31;51008;51.504;11.548;2023-10-08T15:39:26;13.83;74.62
64599;SHT31;51008;51.504;11.548;2023-10-08T15:44:26;13.84;74.92
64599;SHT31;51008;51.504;11.548;2023-10-08T15:49:27;13.80;74.58
64599;SHT31;51008;51.504;11.548;2023-10-08T15:54:28;13.59;74.37
64599;SHT31;51008;51.504;11.548;2023-10-08T15:59:29;13.32;74.87
64599;SHT31;51008;51.504;11.548;2023-10-08T16:04:30;13.28;75.58
64599;SHT31;51008;51.504;11.548;2023-10-08T16:09:32;13.19;76.51
64599;SHT31;51008;51.504;11.548;2023-10-08T16:14:33;13.11;77.17
64599;SHT31;51008;51.504;11.548;2023-10-08T16:19:34;12.93;77.86
64599;SHT31;51008;51.504;11.548;2023-10-08T16:24:35;12.81;79.07
64599;SHT31;51008;51.504;11.548;2023-10-08T16:29:36;12.62;79.89
64599;SHT31;51008;51.504;11.548;2023-10-08T16:34:37;12.42;79.76
64599;SHT31;51008;51.504;11.548;2023-10-08T16:39:38;12.29;79.15
64599;SHT31;51008;51.504;11.548;2023-10-08T16:44:39;12.24;79.67
64599;SHT31;51008;51.504;11.548;2023-10-08T16:49:40;12.20;79.98
64599;SHT31;51008;51.504;11.548;2023-10-08T16:54:41;12.04;80.52
64599;SHT31;51008;51.504;11.548;2023-10-08T16:59:42;11.98;80.72
64599;SHT31;51008;51.504;11.548;2023-10-08T17:04:43;11.83;80.36
64599;SHT31;51008;51.504;11.548;2023-10-08T17:09:44;11.74;80.26
64599;SHT31;51008;51.504;11.548;2023-10-08T17:14:45;11.67;81.07
64599;SHT31;51008;51.504;11.548;2023-10-08T17:19:46;11.69;80.76
64599;SHT31;51008;51.504;11.548;2023-10-08T17:24:47;11.58;81.31
64599;SHT31;51008;51.504;11.548;2023-10-08T17:29:48;11.51;81.31
64599;SHT31;51008;51.504;11.548;2023-10-08T17:34:50;11.58;81.30
64599;SHT31;51008;51.504;11.548;2023-10-08T17:39:51;11.55;80.87
64599;SHT31;51008;51.504;11.548;2023-10-08T17:44:52;11.56;81.56
64599;SHT31;51008;51.504;11.548;2023-10-08T17:49:53;11.42;81.23
64599;SHT31;51008;51.504;11.548;2023-10-08T17:54:54;11.29;81.21
64599;SHT31;51008;51.504;11.548;2023-10-08T17:59:55;11.31;81.99
64599;SHT31;51008;51.504;11.548;2023-10-08T18:04:56;11.31;81.68
64599;SHT31;51008;51.504;11.548;2023-10-08T18:09:57;11.27;80.67
64599;SHT31;51008;51.504;11.548;2023-10-08T18:14:58;11.29;80.58
64599;SHT31;51008;51.504;11.548;2023-10-08T18:19:59;11.29;79.57
64599;SHT31;51008;51.504;11.548;2023-10-08T18:25:00;11.25;79.28
64599;SHT31;51008;51.504;11.548;2023-10-08T18:30:01;11.14;77.94
64599;SHT31;51008;51.504;11.548;2023-10-08T18:35:03;11.11;78.56
64599;SHT31;51008;51.504;11.548;2023-10-08T18:40:05;11.03;79.12
64599;SHT31;51008;51.504;11.548;2023-10-08T18:45:07;11.07;79.41
64599;SHT31;51008;51.504;11.548;2023-10-08T18:50:09;11.14;78.71
64599;SHT31;51008;51.504;11.548;2023-10-08T18:55:10;11.21;79.34
64599;SHT31;51008;51.504;11.548;2023-10-08T19:00:12;11.21;79.25
64599;SHT31;51008;51.504;11.548;2023-10-08T19:05:13;11.17;79.47
64599;SHT31;51008;51.504;11.548;2023-10-08T19:10:14;11.15;80.04
64599;SHT31;51008;51.504;11.548;2023-10-08T19:15:15;11.04;79.67
64599;SHT31;51008;51.504;11.548;2023-10-08T19:20:16;11.04;77.86
64599;SHT31;51008;51.504;11.548;2023-10-08T19:25:17;11.12;77.01
64599;SHT31;51008;51.504;11.548;2023-10-08T19:30:18;11.22;76.45
64599;SHT31;51008;51.504;11.548;2023-10-08T19:35:18;11.18;76.93
64599;SHT31;51008;51.504;11.548;2023-10-08T19:40:20;11.12;77.01
64599;SHT31;51008;51.504;11.548;2023-10-08T19:45:21;11.01;77.81
64599;SHT31;51008;51.504;11.548;2023-10-08T19:50:22;10.97;78.21
64599;SHT31;51008;51.504;11.548;2023-10-08T19:55:23;10.99;78.67
64599;SHT31;51008;51.504;11.548;2023-10-08T20:00:24;10.89;79.59
64599;SHT31;51008;51.504;11.548;2023-10-08T20:05:25;10.76;80.66
64599;SHT31;51008;51.504;11.548;2023-10-08T20:10:26;10.73;80.77
64599;SHT31;51008;51.504;11.548;2023-10-08T20:15:27;10.79;80.09
64599;SHT31;51008;51.504;11.548;2023-10-08T20:20:28;10.80;80.83
64599;SHT31;51008;51.504;11.548;2023-10-08T20:25:31;10.84;82.22
64599;SHT31;51008;51.504;11.548;2023-10-08T20:30:33;10.84;82.22
64599;SHT31;51008;51.504;11.548;2023-10-08T20:35:34;10.80;82.85
64599;SHT31;51008;51.504;11.548;2023-10-08T20:40:36;10.79;83.17
64599;SHT31;51008;51.504;11.548;2023-10-08T20:45:39;10.67;83.54
64599;SHT31;51008;51.504;11.548;2023-10-08T20:50:40;10.63;84.18
64599;SHT31;51008;51.504;11.548;2023-10-08T20:55:40;10.65;84.58
64599;SHT31;51008;51.504;11.548;2023-10-08T21:00:41;10.72;84.86
64599;SHT31;51008;51.504;11.548;2023-10-08T21:05:42;10.70;85.19
64599;SHT31;51008;51.504;11.548;2023-10-08T21:10:44;10.75;85.39
64599;SHT31;51008;51.504;11.548;2023-10-08T21:15:45;10.76;85.65
64599;SHT31;51008;51.504;11.548;2023-10-08T21:20:47;10.84;85.24
64599;SHT31;51008;51.504;11.548;2023-10-08T21:25:48;10.94;84.77
64599;SHT31;51008;51.504;11.548;2023-10-08T21:30:49;10.94;84.56
64599;SHT31;51008;51.504;11.548;2023-10-08T21:35:50;10.87;84.88
64599;SHT31;51008;51.504;11.548;2023-10-08T21:41:01;10.83;85.84
64599;SHT31;51008;51.504;11.548;2023-10-08T21:46:02;10.84;86.17
64599;SHT31;51008;51.504;11.548;2023-10-08T21:51:03;10.90;84.84
64599;SHT31;51008;51.504;11.548;2023-10-08T21:56:05;10.97;85.58
64599;SHT31;51008;51.504;11.548;2023-10-08T22:01:06;10.94;85.85
64599;SHT31;51008;51.504;11.548;2023-10-08T22:06:07;10.97;85.88
64599;SHT31;51008;51.504;11.548;2023-10-08T22:11:10;11.03;85.94
64599;SHT31;51008;51.504;11.548;2023-10-08T22:16:11;11.04;86.27
64599;SHT31;51008;51.504;11.548;2023-10-08T22:21:12;11.08;86.69
64599;SHT31;51008;51.504;11.548;2023-10-08T22:26:13;11.10;86.74
64599;SHT31;51008;51.504;11.548;2023-10-08T22:31:14;11.06;87.28
64599;SHT31;51008;51.504;11.548;2023-10-08T22:36:15;11.03;87.23
64599;SHT31;51008;51.504;11.548;2023-10-08T22:41:16;11.01;87.54
64599;SHT31;51008;51.504;11.548;2023-10-08T22:46:17;11.00;87.63
64599;SHT31;51008;51.504;11.548;2023-10-08T22:51:18;10.96;88.00
64599;SHT31;51008;51.504;11.548;2023-10-08T22:56:20;10.94;88.21
64599;SHT31;51008;51.504;11.548;2023-10-08T23:01:21;10.94;88.70
64599;SHT31;51008;51.504;11.548;2023-10-08T23:06:22;11.00;88.85
64599;SHT31;51008;51.504;11.548;2023-10-08T23:11:23;11.03;89.04
64599;SHT31;51008;51.504;11.548;2023-10-08T23:16:24;11.04;89.23
64599;SHT31;51008;51.504;11.548;2023-10-08T23:21:25;10.79;91.03
64599;SHT31;51008;51.504;11.548;2023-10-08T23:26:26;10.79;91.16
64599;SHT31;51008;51.504;11.548;2023-10-08T23:31:27;10.77;91.53
64599;SHT31;51008;51.504;11.548;2023-10-08T23:36:28;10.76;91.73
64599;SHT31;51008;51.504;11.548;2023-10-08T23:41:29;10.87;91.69
64599;SHT31;51008;51.504;11.548;2023-10-08T23:46:30;10.93;91.79
64599;SHT31;51008;51.504;11.548;2023-10-08T23:51:35;10.99;91.54
64599;SHT31;51008;51.504;11.548;2023-10-08T23:56:36;11.03;91.49
